createdAt,value
2022-09-03T00:00:26.465Z,61.68
2022-09-03T00:02:58.741Z,61.67
2022-09-03T00:05:31.533Z,61.49
2022-09-03T00:07:58.374Z,61.89
2022-09-03T00:10:31.150Z,61.86
2022-09-03T00:13:00.205Z,62.26
2022-09-03T00:15:27.710Z,61.53
2022-09-03T00:17:57.624Z,61.69
2022-09-03T00:20:50.770Z,61.61
2022-09-03T00:23:25.258Z,60.74
2022-09-03T00:26:10.737Z,59.98
2022-09-03T00:29:00.607Z,60.86
2022-09-03T00:31:33.739Z,61.78
2022-09-03T00:34:04.422Z,61.71
2022-09-03T00:36:34.192Z,61.87
2022-09-03T00:39:01.024Z,62.30
2022-09-03T00:41:39.456Z,62.16
2022-09-03T00:44:14.916Z,62.55
2022-09-03T00:46:53.726Z,62.92
2022-09-03T00:49:20.524Z,63.00
2022-09-03T00:52:05.912Z,63.08
2022-09-03T00:54:32.726Z,63.16
2022-09-03T00:57:11.894Z,64.07
2022-09-03T00:59:41.537Z,64.16
2022-09-03T01:02:23.760Z,64.26
2022-09-03T01:04:56.787Z,63.97
2022-09-03T01:07:29.683Z,63.12
2022-09-03T01:10:12.008Z,63.70
2022-09-03T01:12:56.242Z,64.32
2022-09-03T01:15:41.604Z,64.76
2022-09-03T01:18:17.638Z,64.50
2022-09-03T01:20:59.287Z,65.09
2022-09-03T01:23:46.338Z,65.35
2022-09-03T01:26:27.114Z,65.49
2022-09-03T01:29:06.888Z,64.73
2022-09-03T01:31:33.762Z,65.33
2022-09-03T01:34:16.183Z,65.99
2022-09-03T01:36:48.804Z,66.02
2022-09-03T01:39:34.523Z,66.39
2022-09-03T01:42:20.684Z,66.52
2022-09-03T01:44:53.978Z,66.47
2022-09-03T01:47:34.023Z,66.68
2022-09-03T01:50:06.975Z,66.81
2022-09-03T01:52:46.187Z,67.38
2022-09-03T01:55:28.777Z,67.29
2022-09-03T01:57:58.465Z,67.07
2022-09-03T02:00:26.880Z,67.62
2022-09-03T02:02:54.015Z,68.00
2022-09-03T02:05:22.522Z,67.86
2022-09-03T02:07:59.419Z,67.94
2022-09-03T02:10:32.478Z,68.01
2022-09-03T02:13:06.569Z,67.99
2022-09-03T02:15:35.326Z,68.48
2022-09-03T02:18:03.619Z,67.87
2022-09-03T02:20:30.682Z,68.09
2022-09-03T02:22:58.879Z,68.00
2022-09-03T02:25:29.711Z,67.25
2022-09-03T02:27:57.398Z,66.74
2022-09-03T02:30:24.236Z,67.48
2022-09-03T02:32:51.078Z,67.36
2022-09-03T02:35:18.088Z,66.82
2022-09-03T02:37:44.917Z,66.79
2022-09-03T02:40:11.818Z,67.12
2022-09-03T02:42:38.673Z,67.39
2022-09-03T02:45:08.387Z,67.24
2022-09-03T02:47:36.499Z,68.23
2022-09-03T02:50:03.533Z,66.56
2022-09-03T02:52:30.331Z,66.32
2022-09-03T02:54:57.155Z,68.04
2022-09-03T02:57:27.726Z,67.62
2022-09-03T02:59:55.059Z,67.30
2022-09-03T03:02:21.962Z,66.93
2022-09-03T03:04:49.111Z,67.04
2022-09-03T03:07:15.938Z,65.82
2022-09-03T03:09:42.755Z,67.82
2022-09-03T03:12:09.660Z,66.91
2022-09-03T03:14:36.504Z,66.42
2022-09-03T03:17:03.736Z,66.12
2022-09-03T03:19:30.618Z,68.28
2022-09-03T03:21:58.444Z,68.02
2022-09-03T03:24:25.258Z,69.16
2022-09-03T03:26:55.243Z,69.46
2022-09-03T03:29:22.085Z,69.66
2022-09-03T03:31:48.956Z,68.98
2022-09-03T03:34:15.781Z,68.84
2022-09-03T03:36:42.793Z,67.49
2022-09-03T03:39:11.343Z,65.86
2022-09-03T03:41:39.089Z,66.77
2022-09-03T03:44:07.089Z,67.21
2022-09-03T03:46:35.604Z,68.71
2022-09-03T03:49:02.783Z,68.85
2022-09-03T03:51:30.627Z,68.14
2022-09-03T03:53:59.403Z,66.70
2022-09-03T03:56:28.921Z,67.22
2022-09-03T03:58:56.040Z,66.87
2022-09-03T04:01:24.352Z,68.17
2022-09-03T04:03:51.445Z,67.99
2022-09-03T04:06:19.356Z,67.32
2022-09-03T04:08:48.401Z,68.89
2022-09-03T04:11:18.265Z,66.36
2022-09-03T04:13:45.659Z,66.83
2022-09-03T04:16:13.986Z,66.75
2022-09-03T04:18:41.350Z,66.36
2022-09-03T04:21:09.501Z,66.30
2022-09-03T04:23:37.621Z,65.91
2022-09-03T04:26:04.904Z,65.54
2022-09-03T04:28:32.203Z,67.57
2022-09-03T04:31:03.622Z,66.19
2022-09-03T04:33:31.123Z,65.62
2022-09-03T04:36:11.465Z,65.31
2022-09-03T04:38:39.659Z,64.89
2022-09-03T04:41:07.536Z,67.06
2022-09-03T04:43:35.636Z,67.22
2022-09-03T04:46:04.353Z,65.81
2022-09-03T04:48:32.054Z,64.99
2022-09-03T04:51:06.423Z,66.57
2022-09-03T04:53:34.590Z,64.81
2022-09-03T04:56:01.752Z,65.29
2022-09-03T04:58:28.720Z,64.90
2022-09-03T05:00:55.730Z,64.35
2022-09-03T05:03:22.737Z,63.54
2022-09-03T05:05:53.618Z,63.46
2022-09-03T05:08:20.505Z,63.05
2022-09-03T05:10:47.564Z,63.68
2022-09-03T05:13:15.425Z,65.54
2022-09-03T05:15:43.274Z,65.20
2022-09-03T05:18:10.127Z,65.64
2022-09-03T05:20:36.971Z,63.64
2022-09-03T05:23:04.124Z,63.94
2022-09-03T05:25:31.200Z,62.32
2022-09-03T05:27:58.260Z,62.43
2022-09-03T05:30:25.087Z,62.50
2022-09-03T05:32:52.052Z,63.76
2022-09-03T05:35:20.999Z,63.91
2022-09-03T05:37:51.019Z,63.61
2022-09-03T05:40:18.877Z,64.16
2022-09-03T05:42:45.739Z,63.88
2022-09-03T05:45:12.595Z,66.37
2022-09-03T05:47:39.548Z,62.92
2022-09-03T05:50:07.457Z,62.70
2022-09-03T05:52:34.859Z,65.20
2022-09-03T05:55:02.094Z,64.50
2022-09-03T05:57:30.183Z,62.72
2022-09-03T05:59:57.281Z,64.57
2022-09-03T06:02:24.212Z,63.14
2022-09-03T06:04:51.142Z,62.94
2022-09-03T06:07:17.973Z,62.28
2022-09-03T06:09:44.800Z,61.86
2022-09-03T06:12:11.639Z,60.88
2022-09-03T06:14:38.462Z,61.05
2022-09-03T06:17:05.319Z,60.80
2022-09-03T06:19:32.336Z,60.86
2022-09-03T06:21:59.191Z,60.00
2022-09-03T06:24:26.351Z,60.41
2022-09-03T06:26:58.550Z,59.37
2022-09-03T06:29:25.419Z,59.55
2022-09-03T06:31:52.350Z,59.77
2022-09-03T06:34:19.353Z,59.02
2022-09-03T06:36:46.268Z,59.19
2022-09-03T06:39:13.130Z,58.37
2022-09-03T06:41:39.971Z,57.61
2022-09-03T06:44:07.854Z,58.08
2022-09-03T06:46:35.548Z,57.32
2022-09-03T06:49:03.445Z,58.79
2022-09-03T06:51:31.464Z,59.99
2022-09-03T06:54:16.291Z,58.37
2022-09-03T06:56:43.141Z,58.43
2022-09-03T06:59:11.317Z,58.18
2022-09-03T07:01:38.528Z,59.24
2022-09-03T07:04:08.619Z,57.05
2022-09-03T07:06:36.982Z,57.48
2022-09-03T07:09:04.303Z,58.06
2022-09-03T07:11:31.257Z,57.87
2022-09-03T07:13:58.369Z,58.21
2022-09-03T07:16:29.274Z,57.20
2022-09-03T07:18:56.459Z,59.05
2022-09-03T07:21:24.664Z,59.63
2022-09-03T07:23:52.168Z,59.58
2022-09-03T07:26:20.187Z,59.16
2022-09-03T07:28:47.462Z,57.01
2022-09-03T07:31:18.700Z,57.62
2022-09-03T07:33:46.621Z,58.80
2022-09-03T07:36:15.280Z,56.59
2022-09-03T07:38:44.496Z,57.19
2022-09-03T07:41:12.651Z,58.20
2022-09-03T07:43:45.272Z,58.34
2022-09-03T07:46:12.257Z,57.70
2022-09-03T07:48:42.235Z,57.46
2022-09-03T07:51:09.616Z,58.40
2022-09-03T07:53:36.456Z,56.92
2022-09-03T07:56:07.201Z,57.84
2022-09-03T07:58:35.291Z,57.92
2022-09-03T08:01:06.483Z,57.56
2022-09-03T08:03:34.671Z,57.59
2022-09-03T08:06:02.923Z,57.46
2022-09-03T08:08:31.279Z,57.44
2022-09-03T08:11:11.483Z,57.57
2022-09-03T08:13:46.040Z,58.21
2022-09-03T08:16:14.452Z,57.65
2022-09-03T08:18:41.434Z,57.31
2022-09-03T08:21:12.421Z,57.73
2022-09-03T08:23:40.324Z,58.30
2022-09-03T08:26:07.629Z,58.38
2022-09-03T08:28:35.208Z,57.90
2022-09-03T08:31:08.888Z,58.53
2022-09-03T08:33:35.767Z,59.12
2022-09-03T08:36:21.748Z,58.20
2022-09-03T08:38:49.620Z,57.90
2022-09-03T08:41:17.994Z,59.20
2022-09-03T08:43:57.031Z,58.37
2022-09-03T08:46:27.571Z,58.20
2022-09-03T08:48:57.059Z,59.41
2022-09-03T08:51:25.511Z,59.49
2022-09-03T08:53:53.860Z,58.20
2022-09-03T08:56:31.191Z,58.92
2022-09-03T08:58:58.032Z,60.04
2022-09-03T09:01:30.741Z,59.18
2022-09-03T09:04:15.592Z,58.65
2022-09-03T09:07:01.210Z,58.32
2022-09-03T09:09:31.185Z,57.84
2022-09-03T09:12:04.122Z,56.00
2022-09-03T09:14:50.014Z,54.32
2022-09-03T09:17:16.859Z,53.14
2022-09-03T09:20:02.324Z,52.24
2022-09-03T09:22:37.576Z,52.74
2022-09-03T09:25:08.360Z,51.32
2022-09-03T09:27:35.205Z,51.52
2022-09-03T09:30:04.580Z,51.76
2022-09-03T09:32:32.739Z,50.98
2022-09-03T09:34:59.630Z,51.82
2022-09-03T09:37:26.460Z,52.15
2022-09-03T09:39:54.900Z,52.30
2022-09-03T09:42:22.528Z,52.48
2022-09-03T09:44:49.348Z,52.65
2022-09-03T09:47:17.217Z,52.39
2022-09-03T09:49:46.869Z,51.34
2022-09-03T09:52:15.274Z,52.47
2022-09-03T09:54:43.353Z,52.47
2022-09-03T09:57:17.600Z,51.69
2022-09-03T10:00:05.467Z,50.47
2022-09-03T10:02:40.539Z,50.75
2022-09-03T10:05:27.736Z,49.90
2022-09-03T10:08:02.315Z,49.03
2022-09-03T10:10:30.219Z,48.68
2022-09-03T10:13:00.602Z,48.89
2022-09-03T10:15:37.809Z,47.86
2022-09-03T10:18:22.195Z,48.43
2022-09-03T10:20:59.040Z,49.04
2022-09-03T10:23:27.113Z,48.26
2022-09-03T10:25:56.667Z,48.39
2022-09-03T10:28:30.188Z,47.48
2022-09-03T10:31:15.923Z,46.86
2022-09-03T10:33:51.228Z,46.71
2022-09-03T10:36:21.036Z,47.67
2022-09-03T10:38:58.650Z,47.09
2022-09-03T10:41:31.302Z,48.11
2022-09-03T10:44:06.996Z,47.29
2022-09-03T10:46:41.916Z,47.65
2022-09-03T10:49:24.992Z,47.19
2022-09-03T10:52:16.452Z,47.16
2022-09-03T10:54:48.818Z,47.53
2022-09-03T10:57:34.137Z,47.05
2022-09-03T11:00:06.051Z,47.00
2022-09-03T11:02:51.665Z,45.74
2022-09-03T11:05:20.554Z,45.26
2022-09-03T11:07:52.939Z,46.18
2022-09-03T11:10:22.572Z,46.63
2022-09-03T11:13:10.065Z,45.61
2022-09-03T11:15:44.919Z,46.18
2022-09-03T11:18:20.198Z,46.53
2022-09-03T11:20:49.016Z,47.44
2022-09-03T11:23:17.197Z,47.49
2022-09-03T11:25:51.219Z,47.24
2022-09-03T11:28:27.120Z,48.41
2022-09-03T11:31:03.079Z,49.28
2022-09-03T11:33:32.950Z,47.71
2022-09-03T11:36:00.568Z,48.34
2022-09-03T11:38:28.513Z,48.73
2022-09-03T11:40:55.303Z,49.39
2022-09-03T11:43:24.888Z,49.71
2022-09-03T11:46:10.837Z,50.05
2022-09-03T11:48:46.371Z,49.12
2022-09-03T11:51:33.014Z,48.18
2022-09-03T11:54:03.283Z,49.11
2022-09-03T11:56:31.348Z,47.90
2022-09-03T11:59:03.508Z,49.24
2022-09-03T12:01:31.914Z,47.64
2022-09-03T12:04:04.735Z,49.90
2022-09-03T12:06:40.615Z,48.69
2022-09-03T12:09:17.529Z,47.87
2022-09-03T12:11:44.381Z,47.65
2022-09-03T12:14:31.853Z,48.73
2022-09-03T12:17:25.074Z,47.05
2022-09-03T12:19:53.392Z,47.72
2022-09-03T12:22:21.377Z,47.48
2022-09-03T12:24:48.683Z,47.43
2022-09-03T12:27:18.585Z,46.50
2022-09-03T12:29:54.225Z,45.57
2022-09-03T12:32:21.643Z,45.85
2022-09-03T12:34:51.145Z,45.63
2022-09-03T12:38:03.343Z,44.51
2022-09-03T12:40:16.035Z,44.08
2022-09-03T12:42:42.910Z,45.21
2022-09-03T12:45:10.071Z,45.70
2022-09-03T12:47:40.767Z,44.60
2022-09-03T12:50:42.512Z,45.55
2022-09-03T12:53:21.514Z,44.87
2022-09-03T12:55:51.649Z,44.75
2022-09-03T12:58:24.645Z,44.82
2022-09-03T13:01:05.889Z,43.80
2022-09-03T13:03:51.702Z,44.97
2022-09-03T13:06:20.524Z,44.23
2022-09-03T13:08:48.909Z,43.84
2022-09-03T13:11:17.572Z,45.06
2022-09-03T13:14:02.304Z,45.27
2022-09-03T13:16:46.336Z,45.70
2022-09-03T13:19:21.277Z,46.08
2022-09-03T13:21:57.281Z,46.46
2022-09-03T13:24:39.339Z,45.87
2022-09-03T13:27:24.995Z,45.84
2022-09-03T13:29:52.663Z,46.16
2022-09-03T13:32:29.047Z,45.59
2022-09-03T13:35:08.665Z,44.61
2022-09-03T13:37:55.763Z,45.11
2022-09-03T13:40:25.660Z,44.71
2022-09-03T13:42:58.152Z,44.57
2022-09-03T13:45:44.075Z,44.10
2022-09-03T13:48:18.276Z,43.64
2022-09-03T13:50:49.350Z,45.28
2022-09-03T13:53:34.738Z,44.75
2022-09-03T13:56:16.448Z,45.40
2022-09-03T13:58:46.839Z,45.06
2022-09-03T14:01:19.186Z,45.32
2022-09-03T14:03:49.430Z,45.83
2022-09-03T14:06:24.450Z,45.99
2022-09-03T14:09:03.624Z,45.89
2022-09-03T14:11:52.451Z,45.66
2022-09-03T14:14:38.211Z,44.87
2022-09-03T14:17:05.086Z,45.25
2022-09-03T14:19:34.792Z,44.29
2022-09-03T14:22:06.751Z,44.05
2022-09-03T14:24:45.649Z,44.14
2022-09-03T14:27:12.975Z,44.40
2022-09-03T14:29:50.537Z,43.88
2022-09-03T14:32:27.053Z,44.31
2022-09-03T14:34:59.741Z,45.29
2022-09-03T14:37:45.463Z,44.73
2022-09-03T14:40:40.047Z,44.45
2022-09-03T14:43:21.734Z,45.16
2022-09-03T14:46:09.935Z,46.02
2022-09-03T14:48:46.047Z,45.89
2022-09-03T14:51:22.121Z,45.51
2022-09-03T14:53:51.750Z,46.08
2022-09-03T14:56:27.511Z,46.50
2022-09-03T14:59:09.115Z,46.22
2022-09-03T15:01:39.530Z,47.17
2022-09-03T15:04:09.842Z,45.40
2022-09-03T15:06:52.001Z,46.76
2022-09-03T15:09:24.820Z,47.51
2022-09-03T15:11:57.395Z,49.70
2022-09-03T15:14:35.029Z,48.38
2022-09-03T15:17:17.669Z,47.84
2022-09-03T15:19:44.489Z,48.67
2022-09-03T15:22:11.290Z,47.61
2022-09-03T15:24:45.234Z,47.84
2022-09-03T15:27:30.762Z,47.53
2022-09-03T15:30:11.399Z,48.40
2022-09-03T15:32:38.245Z,48.59
2022-09-03T15:35:14.289Z,49.57
2022-09-03T15:37:41.082Z,48.81
2022-09-03T15:40:10.697Z,49.06
2022-09-03T15:42:42.184Z,48.87
2022-09-03T15:45:20.793Z,50.22
2022-09-03T15:47:56.422Z,50.28
2022-09-03T15:50:39.223Z,49.82
2022-09-03T15:53:06.040Z,51.77
2022-09-03T15:55:42.188Z,50.89
2022-09-03T15:58:09.012Z,49.95
2022-09-03T16:00:48.932Z,50.08
2022-09-03T16:03:23.130Z,50.64
2022-09-03T16:05:54.887Z,50.79
2022-09-03T16:08:21.753Z,50.36
2022-09-03T16:11:01.399Z,50.96
2022-09-03T16:13:37.129Z,51.87
2022-09-03T16:16:06.131Z,51.27
2022-09-03T16:18:39.053Z,50.93
2022-09-03T16:21:12.239Z,52.17
2022-09-03T16:23:42.123Z,52.21
2022-09-03T16:26:24.095Z,53.24
2022-09-03T16:28:54.957Z,53.18
2022-09-03T16:31:37.239Z,53.58
2022-09-03T16:34:17.974Z,53.89
2022-09-03T16:36:54.836Z,53.32
2022-09-03T16:39:24.534Z,53.56
2022-09-03T16:42:06.432Z,53.35
2022-09-03T16:44:46.804Z,53.45
2022-09-03T16:47:27.764Z,53.72
2022-09-03T16:50:06.673Z,54.80
2022-09-03T16:52:45.620Z,54.22
2022-09-03T16:55:30.332Z,54.50
2022-09-03T16:57:59.919Z,54.97
2022-09-03T17:00:36.565Z,54.98
2022-09-03T17:03:26.068Z,55.35
2022-09-03T17:06:12.027Z,55.90
2022-09-03T17:08:54.136Z,55.75
2022-09-03T17:11:29.926Z,55.87
2022-09-03T17:14:04.194Z,57.35
2022-09-03T17:16:53.316Z,58.50
2022-09-03T17:19:38.848Z,59.14
2022-09-03T17:22:10.622Z,59.46
2022-09-03T17:24:40.550Z,60.06
2022-09-03T17:27:25.925Z,60.51
2022-09-03T17:30:03.339Z,61.07
2022-09-03T17:32:30.155Z,61.74
2022-09-03T17:35:04.612Z,62.29
2022-09-03T17:37:40.308Z,63.04
2022-09-03T17:40:39.661Z,63.45
2022-09-03T17:43:14.549Z,63.84
2022-09-03T17:45:54.244Z,64.24
2022-09-03T17:48:27.093Z,64.60
2022-09-03T17:50:57.148Z,64.83
2022-09-03T17:53:42.726Z,64.99
2022-09-03T17:56:22.175Z,65.29
2022-09-03T17:58:55.951Z,65.95
2022-09-03T18:01:28.308Z,66.14
2022-09-03T18:03:55.233Z,66.30
2022-09-03T18:06:40.548Z,66.47
2022-09-03T18:09:19.839Z,66.52
2022-09-03T18:11:51.029Z,67.21
2022-09-03T18:14:24.057Z,67.60
2022-09-03T18:17:03.251Z,67.79
2022-09-03T18:19:33.959Z,68.35
2022-09-03T18:22:04.028Z,68.14
2022-09-03T18:24:53.528Z,68.23
2022-09-03T18:27:20.344Z,67.68
2022-09-03T18:29:54.201Z,67.69
2022-09-03T18:32:21.841Z,67.74
2022-09-03T18:34:48.713Z,67.87
2022-09-03T18:37:18.611Z,68.38
2022-09-03T18:39:45.784Z,67.67
2022-09-03T18:42:39.526Z,68.10
2022-09-03T18:45:41.993Z,68.10
2022-09-03T18:48:22.065Z,68.98
2022-09-03T18:50:52.438Z,69.01
2022-09-03T18:53:39.224Z,69.03
2022-09-03T18:56:13.576Z,69.01
2022-09-03T18:58:59.696Z,69.54
2022-09-03T19:01:26.720Z,70.01
2022-09-03T19:04:02.745Z,70.60
2022-09-03T19:06:35.568Z,70.56
2022-09-03T19:09:28.657Z,71.17
2022-09-03T19:11:55.918Z,71.75
2022-09-03T19:14:41.458Z,71.46
2022-09-03T19:17:28.585Z,71.97
2022-09-03T19:20:07.601Z,72.00
2022-09-03T19:22:36.103Z,72.50
2022-09-03T19:25:05.203Z,72.92
2022-09-03T19:28:00.629Z,73.06
2022-09-03T19:30:27.447Z,72.96
2022-09-03T19:33:02.664Z,73.55
2022-09-03T19:35:34.112Z,74.15
2022-09-03T19:38:08.094Z,74.02
2022-09-03T19:41:13.344Z,75.06
2022-09-03T19:43:43.064Z,75.28
2022-09-03T19:46:09.964Z,75.89
2022-09-03T19:48:46.483Z,75.83
2022-09-03T19:51:20.253Z,76.17
2022-09-03T19:53:48.673Z,75.55
2022-09-03T19:56:23.583Z,75.26
2022-09-03T19:59:00.261Z,75.27
2022-09-03T20:01:32.876Z,75.83
2022-09-03T20:04:00.829Z,76.20
2022-09-03T20:06:29.151Z,75.85
2022-09-03T20:09:00.404Z,76.33
2022-09-03T20:11:29.838Z,76.63
2022-09-03T20:13:58.020Z,75.77
2022-09-03T20:16:45.126Z,76.34
2022-09-03T20:19:12.956Z,76.15
2022-09-03T20:21:43.545Z,75.78
2022-09-03T20:24:25.518Z,75.54
2022-09-03T20:27:10.882Z,75.63
2022-09-03T20:29:47.623Z,75.76
2022-09-03T20:32:26.929Z,75.50
2022-09-03T20:35:08.999Z,76.72
2022-09-03T20:37:48.569Z,76.46
2022-09-03T20:40:20.230Z,76.76
2022-09-03T20:42:47.152Z,77.15
2022-09-03T20:45:25.415Z,77.64
2022-09-03T20:48:07.514Z,77.67
2022-09-03T20:50:34.329Z,77.75
2022-09-03T20:53:10.052Z,78.00
2022-09-03T20:55:41.656Z,78.09
2022-09-03T20:58:23.629Z,77.48
2022-09-03T21:00:59.972Z,77.74
2022-09-03T21:03:32.741Z,77.00
2022-09-03T21:06:11.563Z,78.10
2022-09-03T21:08:41.546Z,78.43
2022-09-03T21:11:14.916Z,79.00
2022-09-03T21:14:02.090Z,79.30
2022-09-03T21:16:51.099Z,79.95
2022-09-03T21:19:36.415Z,80.59
2022-09-03T21:22:38.812Z,81.21
2022-09-03T21:25:08.397Z,81.95
2022-09-03T21:27:43.627Z,82.49
2022-09-03T21:30:14.562Z,82.96
2022-09-03T21:32:41.408Z,83.34
2022-09-03T21:35:08.229Z,84.52
2022-09-03T21:37:36.760Z,85.03
2022-09-03T21:40:08.039Z,85.35
2022-09-03T21:42:40.769Z,85.01
2022-09-03T21:45:28.091Z,84.47
2022-09-03T21:47:58.331Z,84.80
2022-09-03T21:50:34.685Z,85.44
2022-09-03T21:53:09.947Z,85.23
2022-09-03T21:55:36.763Z,85.34
2022-09-03T21:58:22.514Z,85.67
2022-09-03T22:00:51.738Z,86.17
2022-09-03T22:03:19.813Z,85.46
2022-09-03T22:05:53.946Z,86.81
2022-09-03T22:08:30.504Z,87.22
2022-09-03T22:11:09.880Z,87.93
2022-09-03T22:13:56.958Z,86.73
2022-09-03T22:16:34.979Z,87.04
2022-09-03T22:19:01.875Z,87.02
2022-09-03T22:21:32.195Z,86.52
2022-09-03T22:24:20.631Z,86.63
2022-09-03T22:26:59.284Z,86.68
2022-09-03T22:29:44.957Z,88.84
2022-09-03T22:32:34.564Z,88.33
2022-09-03T22:35:20.001Z,88.99
2022-09-03T22:37:55.645Z,88.98
2022-09-03T22:40:22.439Z,88.73
2022-09-03T22:42:49.232Z,88.60
2022-09-03T22:45:39.194Z,89.42
2022-09-03T22:48:24.820Z,90.43
2022-09-03T22:50:56.145Z,92.01
2022-09-03T22:53:22.984Z,91.21
2022-09-03T22:56:10.048Z,90.69
2022-09-03T22:58:39.644Z,90.83
2022-09-03T23:01:10.184Z,90.95
2022-09-03T23:03:45.084Z,91.72
2022-09-03T23:06:24.169Z,92.56
2022-09-03T23:08:58.787Z,92.07
2022-09-03T23:11:27.559Z,91.11
2022-09-03T23:14:05.735Z,92.54
2022-09-03T23:16:50.521Z,91.74
2022-09-03T23:21:51.193Z,92.91
2022-09-03T23:24:24.323Z,92.05
2022-09-03T23:26:51.569Z,92.24
2022-09-03T23:29:21.947Z,93.21
2022-09-03T23:31:48.882Z,92.56
2022-09-03T23:34:15.732Z,92.60
2022-09-03T23:37:15.974Z,92.96
2022-09-03T23:39:42.119Z,92.60
2022-09-03T23:42:20.651Z,92.25
2022-09-03T23:44:47.467Z,92.87
2022-09-03T23:47:34.152Z,93.63
2022-09-03T23:50:10.192Z,93.18
2022-09-03T23:52:37.025Z,93.92
2022-09-03T23:55:06.927Z,93.22
2022-09-03T23:57:38.720Z,93.12
